sensor_id;sensor_type;location;lat;lon;timestamp;temperature;humidity
51839;DHT22;37886;53.174;6.368;2022-08-19T00:01:54;14.90;99.90
51839;DHT22;37886;53.174;6.368;2022-08-19T00:04:24;14.90;99.90
51839;DHT22;37886;53.174;6.368;2022-08-19T00:06:51;14.90;99.90
51839;DHT22;37886;53.174;6.368;2022-08-19T00:09:18;14.90;99.90
51839;DHT22;37886;53.174;6.368;2022-08-19T00:11:44;14.80;99.90
51839;DHT22;37886;53.174;6.368;2022-08-19T00:14:13;14.80;99.90
51839;DHT22;37886;53.174;6.368;2022-08-19T00:16:41;14.80;99.90
51839;DHT22;37886;53.174;6.368;2022-08-19T00:19:07;14.80;99.90
51839;DHT22;37886;53.174;6.368;2022-08-19T00:21:33;14.70;99.90
51839;DHT22;37886;53.174;6.368;2022-08-19T00:24:04;14.70;99.90
51839;DHT22;37886;53.174;6.368;2022-08-19T00:26:32;14.70;99.90
51839;DHT22;37886;53.174;6.368;2022-08-19T00:28:58;14.70;99.90
51839;DHT22;37886;53.174;6.368;2022-08-19T00:31:26;14.60;99.90
51839;DHT22;37886;53.174;6.368;2022-08-19T00:33:54;14.60;99.90
51839;DHT22;37886;53.174;6.368;2022-08-19T00:36:20;14.60;99.90
51839;DHT22;37886;53.174;6.368;2022-08-19T00:38:46;14.60;99.90
51839;DHT22;37886;53.174;6.368;2022-08-19T00:41:16;14.50;99.90
51839;DHT22;37886;53.174;6.368;2022-08-19T00:44:04;14.50;99.90
51839;DHT22;37886;53.174;6.368;2022-08-19T00:46:32;14.50;99.90
51839;DHT22;37886;53.174;6.368;2022-08-19T00:48:59;14.50;99.90
51839;DHT22;37886;53.174;6.368;2022-08-19T00:51:27;14.40;99.90
51839;DHT22;37886;53.174;6.368;2022-08-19T00:53:56;14.40;99.90
51839;DHT22;37886;53.174;6.368;2022-08-19T00:56:23;14.40;99.90
51839;DHT22;37886;53.174;6.368;2022-08-19T00:58:49;14.40;99.90
51839;DHT22;37886;53.174;6.368;2022-08-19T01:01:15;14.40;99.90
51839;DHT22;37886;53.174;6.368;2022-08-19T01:03:41;14.30;99.90
51839;DHT22;37886;53.174;6.368;2022-08-19T01:06:06;14.30;99.90
51839;DHT22;37886;53.174;6.368;2022-08-19T01:08:33;14.30;99.90
51839;DHT22;37886;53.174;6.368;2022-08-19T01:10:59;14.30;99.90
51839;DHT22;37886;53.174;6.368;2022-08-19T01:13:30;14.20;99.90
51839;DHT22;37886;53.174;6.368;2022-08-19T01:16:03;14.20;99.90
51839;DHT22;37886;53.174;6.368;2022-08-19T01:18:31;14.20;99.90
51839;DHT22;37886;53.174;6.368;2022-08-19T01:21:02;14.10;99.90
51839;DHT22;37886;53.174;6.368;2022-08-19T01:23:29;14.10;99.90
51839;DHT22;37886;53.174;6.368;2022-08-19T01:26:21;14.10;99.90
51839;DHT22;37886;53.174;6.368;2022-08-19T01:28:49;14.00;99.90
51839;DHT22;37886;53.174;6.368;2022-08-19T01:31:19;14.00;99.90
51839;DHT22;37886;53.174;6.368;2022-08-19T01:33:47;14.00;99.90
51839;DHT22;37886;53.174;6.368;2022-08-19T01:36:16;13.90;99.90
51839;DHT22;37886;53.174;6.368;2022-08-19T01:38:47;13.90;99.90
51839;DHT22;37886;53.174;6.368;2022-08-19T01:41:14;13.90;99.90
51839;DHT22;37886;53.174;6.368;2022-08-19T01:43:40;13.90;99.90
51839;DHT22;37886;53.174;6.368;2022-08-19T01:46:06;13.90;99.90
51839;DHT22;37886;53.174;6.368;2022-08-19T01:48:42;13.90;99.90
51839;DHT22;37886;53.174;6.368;2022-08-19T01:51:10;13.90;99.90
51839;DHT22;37886;53.174;6.368;2022-08-19T01:53:36;13.90;99.90
51839;DHT22;37886;53.174;6.368;2022-08-19T01:56:03;13.90;99.90
51839;DHT22;37886;53.174;6.368;2022-08-19T01:58:40;13.90;99.90
51839;DHT22;37886;53.174;6.368;2022-08-19T02:01:07;13.90;99.90
51839;DHT22;37886;53.174;6.368;2022-08-19T02:03:33;13.90;99.90
51839;DHT22;37886;53.174;6.368;2022-08-19T02:06:02;13.80;99.90
51839;DHT22;37886;53.174;6.368;2022-08-19T02:08:29;13.90;99.90
51839;DHT22;37886;53.174;6.368;2022-08-19T02:10:55;13.90;99.90
51839;DHT22;37886;53.174;6.368;2022-08-19T02:13:22;13.90;99.90
51839;DHT22;37886;53.174;6.368;2022-08-19T02:15:48;13.90;99.90
51839;DHT22;37886;53.174;6.368;2022-08-19T02:18:14;13.80;99.90
51839;DHT22;37886;53.174;6.368;2022-08-19T02:20:41;13.90;99.90
51839;DHT22;37886;53.174;6.368;2022-08-19T02:23:07;13.90;99.90
51839;DHT22;37886;53.174;6.368;2022-08-19T02:25:33;13.90;99.90
51839;DHT22;37886;53.174;6.368;2022-08-19T02:27:59;13.90;99.90
51839;DHT22;37886;53.174;6.368;2022-08-19T02:30:25;13.80;99.90
51839;DHT22;37886;53.174;6.368;2022-08-19T02:32:51;13.80;99.90
51839;DHT22;37886;53.174;6.368;2022-08-19T02:35:17;13.90;99.90
51839;DHT22;37886;53.174;6.368;2022-08-19T02:37:44;13.90;99.90
51839;DHT22;37886;53.174;6.368;2022-08-19T02:40:30;13.80;99.90
51839;DHT22;37886;53.174;6.368;2022-08-19T02:42:59;13.80;99.90
51839;DHT22;37886;53.174;6.368;2022-08-19T02:45:24;13.80;99.90
51839;DHT22;37886;53.174;6.368;2022-08-19T02:47:50;13.80;99.90
51839;DHT22;37886;53.174;6.368;2022-08-19T02:50:16;13.80;99.90
51839;DHT22;37886;53.174;6.368;2022-08-19T02:52:41;13.80;99.90
51839;DHT22;37886;53.174;6.368;2022-08-19T02:55:07;13.80;99.90
51839;DHT22;37886;53.174;6.368;2022-08-19T02:57:33;13.80;99.90
51839;DHT22;37886;53.174;6.368;2022-08-19T02:59:59;13.80;99.90
51839;DHT22;37886;53.174;6.368;2022-08-19T03:02:26;13.80;99.90
51839;DHT22;37886;53.174;6.368;2022-08-19T03:04:52;13.80;99.90
51839;DHT22;37886;53.174;6.368;2022-08-19T03:07:18;13.80;99.90
51839;DHT22;37886;53.174;6.368;2022-08-19T03:09:44;13.80;99.90
51839;DHT22;37886;53.174;6.368;2022-08-19T03:12:10;13.70;99.90
51839;DHT22;37886;53.174;6.368;2022-08-19T03:14:37;13.70;99.90
51839;DHT22;37886;53.174;6.368;2022-08-19T03:17:03;13.70;99.90
51839;DHT22;37886;53.174;6.368;2022-08-19T03:19:30;13.70;99.90
51839;DHT22;37886;53.174;6.368;2022-08-19T03:21:57;13.70;99.90
51839;DHT22;37886;53.174;6.368;2022-08-19T03:24:23;13.70;99.90
51839;DHT22;37886;53.174;6.368;2022-08-19T03:26:51;13.70;99.90
51839;DHT22;37886;53.174;6.368;2022-08-19T03:29:19;13.70;99.90
51839;DHT22;37886;53.174;6.368;2022-08-19T03:31:45;13.60;99.90
51839;DHT22;37886;53.174;6.368;2022-08-19T03:34:16;13.70;99.90
51839;DHT22;37886;53.174;6.368;2022-08-19T03:36:43;13.60;99.90
51839;DHT22;37886;53.174;6.368;2022-08-19T03:39:09;13.60;99.90
51839;DHT22;37886;53.174;6.368;2022-08-19T03:41:42;13.70;99.90
51839;DHT22;37886;53.174;6.368;2022-08-19T03:44:08;13.70;99.90
51839;DHT22;37886;53.174;6.368;2022-08-19T03:46:35;13.70;99.90
51839;DHT22;37886;53.174;6.368;2022-08-19T03:49:04;13.70;99.90
51839;DHT22;37886;53.174;6.368;2022-08-19T03:51:38;13.70;99.90
51839;DHT22;37886;53.174;6.368;2022-08-19T03:54:08;13.70;99.90
51839;DHT22;37886;53.174;6.368;2022-08-19T03:56:39;13.70;99.90
51839;DHT22;37886;53.174;6.368;2022-08-19T03:59:07;13.70;99.90
51839;DHT22;37886;53.174;6.368;2022-08-19T04:01:34;13.60;99.90
51839;DHT22;37886;53.174;6.368;2022-08-19T04:04:00;13.60;99.90
51839;DHT22;37886;53.174;6.368;2022-08-19T04:06:29;13.70;99.90
51839;DHT22;37886;53.174;6.368;2022-08-19T04:08:57;13.70;99.90
51839;DHT22;37886;53.174;6.368;2022-08-19T04:11:29;13.70;99.90
51839;DHT22;37886;53.174;6.368;2022-08-19T04:13:59;13.70;99.90
51839;DHT22;37886;53.174;6.368;2022-08-19T04:16:26;13.80;99.90
51839;DHT22;37886;53.174;6.368;2022-08-19T04:18:56;13.70;99.90
51839;DHT22;37886;53.174;6.368;2022-08-19T04:21:24;13.70;99.90
51839;DHT22;37886;53.174;6.368;2022-08-19T04:23:50;13.70;99.90
51839;DHT22;37886;53.174;6.368;2022-08-19T04:26:22;13.70;99.90
51839;DHT22;37886;53.174;6.368;2022-08-19T04:28:48;13.80;99.90
51839;DHT22;37886;53.174;6.368;2022-08-19T04:31:23;13.70;99.90
51839;DHT22;37886;53.174;6.368;2022-08-19T04:33:52;13.80;99.90
51839;DHT22;37886;53.174;6.368;2022-08-19T04:36:21;13.70;99.90
51839;DHT22;37886;53.174;6.368;2022-08-19T04:38:48;13.80;99.90
51839;DHT22;37886;53.174;6.368;2022-08-19T04:41:15;13.80;99.90
51839;DHT22;37886;53.174;6.368;2022-08-19T04:44:00;13.80;99.90
51839;DHT22;37886;53.174;6.368;2022-08-19T04:46:28;13.80;99.90
51839;DHT22;37886;53.174;6.368;2022-08-19T04:48:56;13.80;99.90
51839;DHT22;37886;53.174;6.368;2022-08-19T04:51:22;13.80;99.90
51839;DHT22;37886;53.174;6.368;2022-08-19T04:53:48;13.80;99.90
51839;DHT22;37886;53.174;6.368;2022-08-19T04:56:16;13.80;99.90
51839;DHT22;37886;53.174;6.368;2022-08-19T04:58:44;13.90;99.90
51839;DHT22;37886;53.174;6.368;2022-08-19T05:01:18;13.90;99.90
51839;DHT22;37886;53.174;6.368;2022-08-19T05:03:44;13.90;99.90
51839;DHT22;37886;53.174;6.368;2022-08-19T05:06:13;14.00;99.90
51839;DHT22;37886;53.174;6.368;2022-08-19T05:08:40;14.00;99.90
51839;DHT22;37886;53.174;6.368;2022-08-19T05:13:39;14.10;99.90
51839;DHT22;37886;53.174;6.368;2022-08-19T05:16:05;14.20;99.90
51839;DHT22;37886;53.174;6.368;2022-08-19T05:18:31;14.20;99.90
51839;DHT22;37886;53.174;6.368;2022-08-19T05:21:18;14.30;99.90
51839;DHT22;37886;53.174;6.368;2022-08-19T05:24:05;14.40;99.90
51839;DHT22;37886;53.174;6.368;2022-08-19T05:26:35;14.40;99.90
51839;DHT22;37886;53.174;6.368;2022-08-19T05:29:00;14.50;99.90
51839;DHT22;37886;53.174;6.368;2022-08-19T05:31:26;14.50;99.90
51839;DHT22;37886;53.174;6.368;2022-08-19T05:33:51;14.60;99.90
51839;DHT22;37886;53.174;6.368;2022-08-19T05:36:17;14.70;99.90
51839;DHT22;37886;53.174;6.368;2022-08-19T05:38:45;14.70;99.90
51839;DHT22;37886;53.174;6.368;2022-08-19T05:41:13;14.80;99.90
51839;DHT22;37886;53.174;6.368;2022-08-19T05:43:40;14.90;99.90
51839;DHT22;37886;53.174;6.368;2022-08-19T05:46:07;15.00;99.90
51839;DHT22;37886;53.174;6.368;2022-08-19T05:48:34;15.10;99.90
51839;DHT22;37886;53.174;6.368;2022-08-19T05:51:07;15.30;99.90
51839;DHT22;37886;53.174;6.368;2022-08-19T05:53:34;15.50;99.90
51839;DHT22;37886;53.174;6.368;2022-08-19T05:56:08;15.60;99.90
51839;DHT22;37886;53.174;6.368;2022-08-19T05:58:35;15.70;99.90
51839;DHT22;37886;53.174;6.368;2022-08-19T06:01:02;15.70;99.90
51839;DHT22;37886;53.174;6.368;2022-08-19T06:03:32;15.80;99.90
51839;DHT22;37886;53.174;6.368;2022-08-19T06:05:59;15.80;99.90
51839;DHT22;37886;53.174;6.368;2022-08-19T06:08:26;15.90;99.90
51839;DHT22;37886;53.174;6.368;2022-08-19T06:10:52;16.00;99.90
51839;DHT22;37886;53.174;6.368;2022-08-19T06:13:18;16.10;99.90
51839;DHT22;37886;53.174;6.368;2022-08-19T06:15:45;16.10;99.90
51839;DHT22;37886;53.174;6.368;2022-08-19T06:18:13;16.20;99.90
51839;DHT22;37886;53.174;6.368;2022-08-19T06:20:40;16.30;99.90
51839;DHT22;37886;53.174;6.368;2022-08-19T06:23:06;16.40;99.90
51839;DHT22;37886;53.174;6.368;2022-08-19T06:25:32;16.40;99.90
51839;DHT22;37886;53.174;6.368;2022-08-19T06:27:57;16.50;99.90
51839;DHT22;37886;53.174;6.368;2022-08-19T06:30:23;16.60;99.90
51839;DHT22;37886;53.174;6.368;2022-08-19T06:32:49;16.70;99.90
51839;DHT22;37886;53.174;6.368;2022-08-19T06:35:16;16.80;99.90
51839;DHT22;37886;53.174;6.368;2022-08-19T06:37:42;16.90;99.90
51839;DHT22;37886;53.174;6.368;2022-08-19T06:40:08;17.00;99.90
51839;DHT22;37886;53.174;6.368;2022-08-19T06:42:36;17.10;99.90
51839;DHT22;37886;53.174;6.368;2022-08-19T06:45:05;17.20;99.90
51839;DHT22;37886;53.174;6.368;2022-08-19T06:47:31;17.20;99.90
51839;DHT22;37886;53.174;6.368;2022-08-19T06:49:58;17.40;99.90
51839;DHT22;37886;53.174;6.368;2022-08-19T06:52:34;17.50;99.90
51839;DHT22;37886;53.174;6.368;2022-08-19T06:55:01;17.60;99.90
51839;DHT22;37886;53.174;6.368;2022-08-19T06:57:27;17.70;99.90
51839;DHT22;37886;53.174;6.368;2022-08-19T06:59:56;17.80;99.90
51839;DHT22;37886;53.174;6.368;2022-08-19T07:02:22;17.90;99.90
51839;DHT22;37886;53.174;6.368;2022-08-19T07:04:51;17.90;99.90
51839;DHT22;37886;53.174;6.368;2022-08-19T07:07:18;18.00;99.90
51839;DHT22;37886;53.174;6.368;2022-08-19T07:09:44;18.10;99.90
51839;DHT22;37886;53.174;6.368;2022-08-19T07:12:12;18.20;99.90
51839;DHT22;37886;53.174;6.368;2022-08-19T07:14:40;18.30;99.90
51839;DHT22;37886;53.174;6.368;2022-08-19T07:17:08;18.40;99.90
51839;DHT22;37886;53.174;6.368;2022-08-19T07:19:34;18.50;99.90
51839;DHT22;37886;53.174;6.368;2022-08-19T07:22:03;18.60;99.90
51839;DHT22;37886;53.174;6.368;2022-08-19T07:24:29;18.70;99.90
51839;DHT22;37886;53.174;6.368;2022-08-19T07:26:58;18.80;99.90
51839;DHT22;37886;53.174;6.368;2022-08-19T07:29:27;18.90;99.90
51839;DHT22;37886;53.174;6.368;2022-08-19T07:31:54;19.00;99.90
51839;DHT22;37886;53.174;6.368;2022-08-19T07:34:25;19.20;99.90
51839;DHT22;37886;53.174;6.368;2022-08-19T07:36:51;19.20;99.90
51839;DHT22;37886;53.174;6.368;2022-08-19T07:39:21;19.30;99.90
51839;DHT22;37886;53.174;6.368;2022-08-19T07:41:48;19.40;99.90
51839;DHT22;37886;53.174;6.368;2022-08-19T07:44:16;19.50;99.90
51839;DHT22;37886;53.174;6.368;2022-08-19T07:46:46;19.60;99.90
51839;DHT22;37886;53.174;6.368;2022-08-19T07:49:13;19.70;99.90
51839;DHT22;37886;53.174;6.368;2022-08-19T07:51:53;19.90;99.90
51839;DHT22;37886;53.174;6.368;2022-08-19T07:54:20;20.00;99.90
51839;DHT22;37886;53.174;6.368;2022-08-19T07:56:46;20.10;99.90
51839;DHT22;37886;53.174;6.368;2022-08-19T07:59:12;20.20;99.90
51839;DHT22;37886;53.174;6.368;2022-08-19T08:01:39;20.40;99.90
51839;DHT22;37886;53.174;6.368;2022-08-19T08:04:06;20.50;99.90
51839;DHT22;37886;53.174;6.368;2022-08-19T08:06:52;20.60;99.90
51839;DHT22;37886;53.174;6.368;2022-08-19T08:09:39;20.70;99.90
51839;DHT22;37886;53.174;6.368;2022-08-19T08:12:12;20.80;99.90
51839;DHT22;37886;53.174;6.368;2022-08-19T08:14:48;20.90;99.90
51839;DHT22;37886;53.174;6.368;2022-08-19T08:17:16;21.10;99.90
51839;DHT22;37886;53.174;6.368;2022-08-19T08:19:43;21.30;99.90
51839;DHT22;37886;53.174;6.368;2022-08-19T08:22:10;21.40;99.90
51839;DHT22;37886;53.174;6.368;2022-08-19T08:25:11;21.50;99.90
51839;DHT22;37886;53.174;6.368;2022-08-19T08:27:39;21.70;99.90
51839;DHT22;37886;53.174;6.368;2022-08-19T08:30:13;21.70;99.90
51839;DHT22;37886;53.174;6.368;2022-08-19T08:32:40;21.80;99.90
51839;DHT22;37886;53.174;6.368;2022-08-19T08:35:08;21.90;99.90
51839;DHT22;37886;53.174;6.368;2022-08-19T08:37:35;22.00;99.90
51839;DHT22;37886;53.174;6.368;2022-08-19T08:43:28;22.20;99.90
51839;DHT22;37886;53.174;6.368;2022-08-19T08:46:10;22.30;99.90
51839;DHT22;37886;53.174;6.368;2022-08-19T08:48:45;22.40;99.90
51839;DHT22;37886;53.174;6.368;2022-08-19T08:51:28;22.40;99.90
51839;DHT22;37886;53.174;6.368;2022-08-19T08:53:59;22.50;99.90
51839;DHT22;37886;53.174;6.368;2022-08-19T08:56:24;22.60;99.90
51839;DHT22;37886;53.174;6.368;2022-08-19T08:59:05;22.60;99.90
51839;DHT22;37886;53.174;6.368;2022-08-19T09:01:34;22.80;99.90
51839;DHT22;37886;53.174;6.368;2022-08-19T09:04:00;22.90;99.90
51839;DHT22;37886;53.174;6.368;2022-08-19T09:09:32;23.00;99.90
51839;DHT22;37886;53.174;6.368;2022-08-19T09:12:34;23.10;99.90
51839;DHT22;37886;53.174;6.368;2022-08-19T09:15:10;23.20;99.90
51839;DHT22;37886;53.174;6.368;2022-08-19T09:17:37;23.20;99.90
51839;DHT22;37886;53.174;6.368;2022-08-19T09:22:41;23.20;99.90
51839;DHT22;37886;53.174;6.368;2022-08-19T09:25:13;23.20;99.90
51839;DHT22;37886;53.174;6.368;2022-08-19T09:27:41;23.40;99.90
51839;DHT22;37886;53.174;6.368;2022-08-19T09:30:09;23.60;99.90
51839;DHT22;37886;53.174;6.368;2022-08-19T09:32:35;23.90;99.90
51839;DHT22;37886;53.174;6.368;2022-08-19T09:35:01;24.00;99.90
51839;DHT22;37886;53.174;6.368;2022-08-19T09:37:27;24.00;99.90
51839;DHT22;37886;53.174;6.368;2022-08-19T09:39:53;24.00;99.90
51839;DHT22;37886;53.174;6.368;2022-08-19T09:42:19;24.10;99.90
51839;DHT22;37886;53.174;6.368;2022-08-19T09:44:46;24.10;99.90
51839;DHT22;37886;53.174;6.368;2022-08-19T09:47:13;24.30;99.90
51839;DHT22;37886;53.174;6.368;2022-08-19T09:49:40;24.30;99.90
51839;DHT22;37886;53.174;6.368;2022-08-19T09:52:08;24.40;99.90
51839;DHT22;37886;53.174;6.368;2022-08-19T09:54:34;24.40;99.90
51839;DHT22;37886;53.174;6.368;2022-08-19T09:57:00;24.60;99.90
51839;DHT22;37886;53.174;6.368;2022-08-19T09:59:27;24.80;99.90
51839;DHT22;37886;53.174;6.368;2022-08-19T10:01:53;24.90;99.90
51839;DHT22;37886;53.174;6.368;2022-08-19T10:04:19;25.00;99.90
51839;DHT22;37886;53.174;6.368;2022-08-19T10:06:48;25.20;99.90
51839;DHT22;37886;53.174;6.368;2022-08-19T10:09:16;25.20;99.90
51839;DHT22;37886;53.174;6.368;2022-08-19T10:11:44;25.30;99.90
51839;DHT22;37886;53.174;6.368;2022-08-19T10:14:13;25.30;99.90
51839;DHT22;37886;53.174;6.368;2022-08-19T10:16:39;25.40;99.90
51839;DHT22;37886;53.174;6.368;2022-08-19T10:19:06;25.40;99.90
51839;DHT22;37886;53.174;6.368;2022-08-19T10:21:33;25.60;99.90
51839;DHT22;37886;53.174;6.368;2022-08-19T10:24:02;25.90;99.90
51839;DHT22;37886;53.174;6.368;2022-08-19T10:26:39;26.00;99.90
51839;DHT22;37886;53.174;6.368;2022-08-19T10:29:07;25.90;99.90
51839;DHT22;37886;53.174;6.368;2022-08-19T10:31:34;25.90;99.90
51839;DHT22;37886;53.174;6.368;2022-08-19T10:34:00;25.40;99.90
51839;DHT22;37886;53.174;6.368;2022-08-19T10:36:32;25.10;99.90
51839;DHT22;37886;53.174;6.368;2022-08-19T10:39:03;25.40;99.90
51839;DHT22;37886;53.174;6.368;2022-08-19T10:41:31;26.00;99.90
51839;DHT22;37886;53.174;6.368;2022-08-19T10:44:00;26.10;99.90
51839;DHT22;37886;53.174;6.368;2022-08-19T10:46:27;26.30;99.90
51839;DHT22;37886;53.174;6.368;2022-08-19T10:48:59;26.40;99.90
51839;DHT22;37886;53.174;6.368;2022-08-19T10:51:25;26.60;99.90
51839;DHT22;37886;53.174;6.368;2022-08-19T10:54:10;27.10;99.90
51839;DHT22;37886;53.174;6.368;2022-08-19T10:56:35;27.60;99.90
51839;DHT22;37886;53.174;6.368;2022-08-19T11:01:45;26.70;99.90
51839;DHT22;37886;53.174;6.368;2022-08-19T11:04:11;26.60;99.90
51839;DHT22;37886;53.174;6.368;2022-08-19T11:06:40;27.50;99.90
51839;DHT22;37886;53.174;6.368;2022-08-19T11:09:07;28.00;99.90
51839;DHT22;37886;53.174;6.368;2022-08-19T11:11:33;28.50;99.90
51839;DHT22;37886;53.174;6.368;2022-08-19T11:14:06;28.80;99.90
51839;DHT22;37886;53.174;6.368;2022-08-19T11:16:31;28.90;99.90
51839;DHT22;37886;53.174;6.368;2022-08-19T11:18:59;29.20;99.90
51839;DHT22;37886;53.174;6.368;2022-08-19T11:21:27;29.30;99.90
51839;DHT22;37886;53.174;6.368;2022-08-19T11:23:56;29.10;99.90
51839;DHT22;37886;53.174;6.368;2022-08-19T11:26:22;28.90;99.90
51839;DHT22;37886;53.174;6.368;2022-08-19T11:28:49;28.60;99.90
51839;DHT22;37886;53.174;6.368;2022-08-19T11:31:22;28.20;99.90
51839;DHT22;37886;53.174;6.368;2022-08-19T11:33:49;27.80;99.90
51839;DHT22;37886;53.174;6.368;2022-08-19T11:36:20;28.20;99.90
51839;DHT22;37886;53.174;6.368;2022-08-19T11:38:48;28.10;99.90
51839;DHT22;37886;53.174;6.368;2022-08-19T11:41:16;28.20;99.90
51839;DHT22;37886;53.174;6.368;2022-08-19T11:43:42;28.20;99.90
51839;DHT22;37886;53.174;6.368;2022-08-19T11:46:11;28.00;99.90
51839;DHT22;37886;53.174;6.368;2022-08-19T11:48:37;28.50;99.90
51839;DHT22;37886;53.174;6.368;2022-08-19T11:51:09;29.00;99.90
51839;DHT22;37886;53.174;6.368;2022-08-19T11:53:36;29.60;99.90
51839;DHT22;37886;53.174;6.368;2022-08-19T11:56:04;29.90;99.90
51839;DHT22;37886;53.174;6.368;2022-08-19T11:58:30;30.40;99.90
51839;DHT22;37886;53.174;6.368;2022-08-19T12:00:56;30.40;99.90
51839;DHT22;37886;53.174;6.368;2022-08-19T12:03:22;30.60;99.90
51839;DHT22;37886;53.174;6.368;2022-08-19T12:05:48;30.50;99.80
51839;DHT22;37886;53.174;6.368;2022-08-19T12:08:16;30.20;99.30
51839;DHT22;37886;53.174;6.368;2022-08-19T12:10:43;29.70;99.90
51839;DHT22;37886;53.174;6.368;2022-08-19T12:13:14;30.00;99.20
51839;DHT22;37886;53.174;6.368;2022-08-19T12:15:44;29.30;99.40
51839;DHT22;37886;53.174;6.368;2022-08-19T12:18:10;28.80;99.90
51839;DHT22;37886;53.174;6.368;2022-08-19T12:20:38;28.30;99.90
51839;DHT22;37886;53.174;6.368;2022-08-19T12:23:06;27.80;99.90
51839;DHT22;37886;53.174;6.368;2022-08-19T12:25:32;27.70;99.90
51839;DHT22;37886;53.174;6.368;2022-08-19T12:27:58;27.40;99.90
51839;DHT22;37886;53.174;6.368;2022-08-19T12:30:24;27.20;99.90
51839;DHT22;37886;53.174;6.368;2022-08-19T12:32:50;27.10;99.90
51839;DHT22;37886;53.174;6.368;2022-08-19T12:35:17;26.80;99.90
51839;DHT22;37886;53.174;6.368;2022-08-19T12:37:46;26.80;99.90
51839;DHT22;37886;53.174;6.368;2022-08-19T12:40:13;26.70;99.90
51839;DHT22;37886;53.174;6.368;2022-08-19T12:42:39;26.70;99.90
51839;DHT22;37886;53.174;6.368;2022-08-19T12:45:10;26.80;99.90
51839;DHT22;37886;53.174;6.368;2022-08-19T12:47:36;26.80;99.90
51839;DHT22;37886;53.174;6.368;2022-08-19T12:50:03;26.70;99.90
51839;DHT22;37886;53.174;6.368;2022-08-19T12:52:30;26.60;99.90
51839;DHT22;37886;53.174;6.368;2022-08-19T12:54:56;26.40;99.90
51839;DHT22;37886;53.174;6.368;2022-08-19T12:57:24;26.40;99.90
51839;DHT22;37886;53.174;6.368;2022-08-19T12:59:54;26.60;99.90
51839;DHT22;37886;53.174;6.368;2022-08-19T13:02:20;26.40;99.90
51839;DHT22;37886;53.174;6.368;2022-08-19T13:04:46;26.50;99.90
51839;DHT22;37886;53.174;6.368;2022-08-19T13:07:14;26.80;99.90
51839;DHT22;37886;53.174;6.368;2022-08-19T13:09:40;26.90;99.90
51839;DHT22;37886;53.174;6.368;2022-08-19T13:12:08;26.40;99.90
51839;DHT22;37886;53.174;6.368;2022-08-19T13:14:38;26.00;99.90
51839;DHT22;37886;53.174;6.368;2022-08-19T13:17:06;25.60;99.90
51839;DHT22;37886;53.174;6.368;2022-08-19T13:19:31;25.50;99.90
51839;DHT22;37886;53.174;6.368;2022-08-19T13:21:58;25.40;99.90
51839;DHT22;37886;53.174;6.368;2022-08-19T13:24:24;25.00;99.90
51839;DHT22;37886;53.174;6.368;2022-08-19T13:26:50;24.70;99.90
51839;DHT22;37886;53.174;6.368;2022-08-19T13:29:16;24.50;99.90
51839;DHT22;37886;53.174;6.368;2022-08-19T13:32:00;24.60;99.90
51839;DHT22;37886;53.174;6.368;2022-08-19T13:34:44;24.50;99.90
51839;DHT22;37886;53.174;6.368;2022-08-19T13:37:12;24.40;99.90
51839;DHT22;37886;53.174;6.368;2022-08-19T13:39:38;24.50;99.90
51839;DHT22;37886;53.174;6.368;2022-08-19T13:42:04;24.70;99.90
51839;DHT22;37886;53.174;6.368;2022-08-19T13:44:30;24.60;99.90
51839;DHT22;37886;53.174;6.368;2022-08-19T13:47:06;24.60;99.90
51839;DHT22;37886;53.174;6.368;2022-08-19T13:49:33;24.50;99.90
51839;DHT22;37886;53.174;6.368;2022-08-19T13:52:00;24.50;99.90
51839;DHT22;37886;53.174;6.368;2022-08-19T13:54:25;24.70;99.90
51839;DHT22;37886;53.174;6.368;2022-08-19T13:56:52;24.80;99.90
51839;DHT22;37886;53.174;6.368;2022-08-19T13:59:18;25.00;99.90
51839;DHT22;37886;53.174;6.368;2022-08-19T14:01:44;25.20;99.90
51839;DHT22;37886;53.174;6.368;2022-08-19T14:04:10;25.30;99.90
51839;DHT22;37886;53.174;6.368;2022-08-19T14:06:36;25.60;99.90
51839;DHT22;37886;53.174;6.368;2022-08-19T14:09:02;25.80;99.90
51839;DHT22;37886;53.174;6.368;2022-08-19T14:11:28;25.80;99.90
51839;DHT22;37886;53.174;6.368;2022-08-19T14:13:54;25.60;99.90
51839;DHT22;37886;53.174;6.368;2022-08-19T14:16:20;25.60;99.90
51839;DHT22;37886;53.174;6.368;2022-08-19T14:18:47;25.60;99.90
51839;DHT22;37886;53.174;6.368;2022-08-19T14:21:19;25.50;99.90
51839;DHT22;37886;53.174;6.368;2022-08-19T14:23:45;25.60;99.90
51839;DHT22;37886;53.174;6.368;2022-08-19T14:26:13;25.50;99.90
51839;DHT22;37886;53.174;6.368;2022-08-19T14:28:40;25.30;99.90
51839;DHT22;37886;53.174;6.368;2022-08-19T14:31:14;25.10;99.90
51839;DHT22;37886;53.174;6.368;2022-08-19T14:33:44;25.10;99.90
51839;DHT22;37886;53.174;6.368;2022-08-19T14:36:10;25.10;99.90
51839;DHT22;37886;53.174;6.368;2022-08-19T14:38:35;25.20;99.90
51839;DHT22;37886;53.174;6.368;2022-08-19T14:41:14;25.20;99.90
51839;DHT22;37886;53.174;6.368;2022-08-19T14:43:41;25.50;99.90
51839;DHT22;37886;53.174;6.368;2022-08-19T14:46:07;25.80;99.90
51839;DHT22;37886;53.174;6.368;2022-08-19T14:48:35;26.10;99.90
51839;DHT22;37886;53.174;6.368;2022-08-19T14:51:04;26.30;99.90
51839;DHT22;37886;53.174;6.368;2022-08-19T14:53:30;26.50;99.90
51839;DHT22;37886;53.174;6.368;2022-08-19T14:55:55;26.60;99.90
51839;DHT22;37886;53.174;6.368;2022-08-19T14:58:21;26.50;99.90
51839;DHT22;37886;53.174;6.368;2022-08-19T15:00:48;26.40;99.90
51839;DHT22;37886;53.174;6.368;2022-08-19T15:03:13;27.00;99.90
51839;DHT22;37886;53.174;6.368;2022-08-19T15:05:39;27.60;99.90
51839;DHT22;37886;53.174;6.368;2022-08-19T15:08:05;27.70;99.90
51839;DHT22;37886;53.174;6.368;2022-08-19T15:10:31;26.80;99.90
51839;DHT22;37886;53.174;6.368;2022-08-19T15:12:56;26.20;99.90
51839;DHT22;37886;53.174;6.368;2022-08-19T15:15:22;25.70;99.90
51839;DHT22;37886;53.174;6.368;2022-08-19T15:17:49;25.60;99.90
51839;DHT22;37886;53.174;6.368;2022-08-19T15:20:19;25.70;99.90
51839;DHT22;37886;53.174;6.368;2022-08-19T15:22:46;26.40;99.90
51839;DHT22;37886;53.174;6.368;2022-08-19T15:25:15;27.00;99.90
51839;DHT22;37886;53.174;6.368;2022-08-19T15:27:41;27.10;99.90
51839;DHT22;37886;53.174;6.368;2022-08-19T15:30:08;27.00;99.90
51839;DHT22;37886;53.174;6.368;2022-08-19T15:32:34;27.40;99.90
51839;DHT22;37886;53.174;6.368;2022-08-19T15:35:01;27.40;99.90
51839;DHT22;37886;53.174;6.368;2022-08-19T15:37:28;27.20;99.90
51839;DHT22;37886;53.174;6.368;2022-08-19T15:39:54;27.50;99.90
51839;DHT22;37886;53.174;6.368;2022-08-19T15:42:20;27.90;99.90
51839;DHT22;37886;53.174;6.368;2022-08-19T15:44:47;27.90;99.90
51839;DHT22;37886;53.174;6.368;2022-08-19T15:47:13;27.50;99.90
51839;DHT22;37886;53.174;6.368;2022-08-19T15:49:39;27.40;99.90
51839;DHT22;37886;53.174;6.368;2022-08-19T15:52:05;27.20;99.90